createdAt,value
2022-09-21T00:01:23.693Z,99876.25
2022-09-21T00:03:58.875Z,99875.53
2022-09-21T00:06:28.245Z,99872.13
2022-09-21T00:08:56.147Z,99881.72
2022-09-21T00:11:27.078Z,99872.25
2022-09-21T00:13:55.498Z,99878.28
2022-09-21T00:16:22.743Z,99876.66
2022-09-21T00:18:50.130Z,99869.22
2022-09-21T00:21:17.445Z,99877.72
2022-09-21T00:23:45.431Z,99875.13
2022-09-21T00:26:21.545Z,99875.13
2022-09-21T00:28:54.774Z,99877.72
2022-09-21T00:31:22.832Z,99870.84
2022-09-21T00:33:51.234Z,99880.47
2022-09-21T00:36:23.286Z,99872.63
2022-09-21T00:38:58.242Z,99879.66
2022-09-21T00:41:27.054Z,99888.41
2022-09-21T00:44:20.283Z,99885.69
2022-09-21T00:46:49.842Z,99881.44
2022-09-21T00:49:17.888Z,99880.59
2022-09-21T00:51:45.444Z,99877.97
2022-09-21T00:54:20.090Z,99873.03
2022-09-21T00:56:47.535Z,99874.69
2022-09-21T00:59:18.936Z,99880.84
2022-09-21T01:01:48.776Z,99881.84
2022-09-21T01:04:16.987Z,99881.25
2022-09-21T01:06:43.896Z,99882.91
2022-09-21T01:09:11.202Z,99873.56
2022-09-21T01:12:19.032Z,99879.63
2022-09-21T01:15:01.078Z,99874.53
2022-09-21T01:17:53.075Z,99873.81
2022-09-21T01:20:36.007Z,99871.22
2022-09-21T01:23:12.844Z,99866.97
2022-09-21T01:25:55.467Z,99872.44
2022-09-21T01:28:40.816Z,99873.38
2022-09-21T01:31:14.778Z,99873.53
2022-09-21T01:33:49.240Z,99874.34
2022-09-21T01:36:21.538Z,99863.91
2022-09-21T01:38:51.306Z,99876.25
2022-09-21T01:41:23.874Z,99878.72
2022-09-21T01:43:55.935Z,99873.53
2022-09-21T01:46:27.647Z,99879.56
2022-09-21T01:48:59.657Z,99872.69
2022-09-21T01:51:28.791Z,99885.75
2022-09-21T01:54:00.314Z,99888.34
2022-09-21T01:56:36.195Z,99887.38
2022-09-21T01:59:08.659Z,99887.53
2022-09-21T02:01:46.269Z,99888.34
2022-09-21T02:04:13.994Z,99887.53
2022-09-21T02:06:44.976Z,99877.91
2022-09-21T02:09:12.442Z,99877.91
2022-09-21T02:11:42.597Z,99885.06
2022-09-21T02:14:20.509Z,99884.06
2022-09-21T02:17:12.900Z,99888.34
2022-09-21T02:19:57.900Z,99898.78
2022-09-21T02:22:40.966Z,99895.19
2022-09-21T02:25:14.304Z,99899.47
2022-09-21T02:28:01.369Z,99903.72
2022-09-21T02:30:28.725Z,99900.16
2022-09-21T02:33:02.252Z,99897.41
2022-09-21T02:35:49.073Z,99899.88
2022-09-21T02:39:00.978Z,99900.72
2022-09-21T02:41:45.971Z,99900.47
2022-09-21T02:44:29.298Z,99898.41
2022-09-21T02:47:01.929Z,99907.91
2022-09-21T02:49:34.594Z,99898.84
2022-09-21T02:52:06.903Z,99896.91
2022-09-21T02:54:34.693Z,99892.56
2022-09-21T02:57:02.977Z,99902.34
2022-09-21T02:59:30.020Z,99895.88
2022-09-21T03:01:57.085Z,99896.47
2022-09-21T03:04:24.849Z,99900.34
2022-09-21T03:06:52.001Z,99896.50
2022-09-21T03:09:18.969Z,99902.28
2022-09-21T03:11:45.815Z,99900.94
2022-09-21T03:14:13.045Z,99898.75
2022-09-21T03:16:40.031Z,99904.50
2022-09-21T03:19:07.112Z,99897.09
2022-09-21T03:21:34.249Z,99899.31
2022-09-21T03:24:01.265Z,99897.16
2022-09-21T03:26:28.297Z,99893.28
2022-09-21T03:28:55.727Z,99895.22
2022-09-21T03:31:22.810Z,99900.72
2022-09-21T03:33:50.079Z,99894.94
2022-09-21T03:36:17.256Z,99890.00
2022-09-21T03:38:44.441Z,99891.25
2022-09-21T03:41:11.378Z,99893.19
2022-09-21T03:43:38.233Z,99890.00
2022-09-21T03:46:05.581Z,99889.47
2022-09-21T03:48:32.861Z,99887.25
2022-09-21T03:51:00.011Z,99885.84
2022-09-21T03:53:26.912Z,99883.53
2022-09-21T03:55:53.828Z,99887.22
2022-09-21T03:58:22.199Z,99887.47
2022-09-21T04:00:49.122Z,99890.22
2022-09-21T04:03:16.022Z,99889.66
2022-09-21T04:05:42.903Z,99891.84
2022-09-21T04:08:10.205Z,99887.81
2022-09-21T04:10:41.153Z,99889.88
2022-09-21T04:13:09.368Z,99897.16
2022-09-21T04:15:36.823Z,99895.59
2022-09-21T04:18:04.025Z,99885.69
2022-09-21T04:20:31.253Z,99889.34
2022-09-21T04:22:58.410Z,99885.34
2022-09-21T04:25:25.314Z,99877.91
2022-09-21T04:27:52.415Z,99878.28
2022-09-21T04:30:19.515Z,99882.28
2022-09-21T04:32:46.656Z,99888.88
2022-09-21T04:35:13.615Z,99896.13
2022-09-21T04:37:40.571Z,99896.53
2022-09-21T04:40:08.156Z,99894.28
2022-09-21T04:42:35.259Z,99895.34
2022-09-21T04:45:02.377Z,99891.44
2022-09-21T04:47:31.162Z,99892.53
2022-09-21T04:49:58.222Z,99894.41
2022-09-21T04:52:25.760Z,99891.00
2022-09-21T04:54:53.311Z,99893.72
2022-09-21T04:57:20.409Z,99897.38
2022-09-21T04:59:47.333Z,99903.69
2022-09-21T05:02:14.433Z,99905.00
2022-09-21T05:04:41.492Z,99909.66
2022-09-21T05:07:08.376Z,99915.78
2022-09-21T05:09:54.001Z,99910.75
2022-09-21T05:12:20.876Z,99912.63
2022-09-21T05:14:47.863Z,99904.97
2022-09-21T05:17:14.905Z,99910.25
2022-09-21T05:19:41.899Z,99912.97
2022-09-21T05:22:08.910Z,99916.59
2022-09-21T05:24:35.845Z,99909.81
2022-09-21T05:27:02.727Z,99906.22
2022-09-21T05:29:30.026Z,99907.56
2022-09-21T05:32:20.819Z,99909.75
2022-09-21T05:35:08.986Z,99912.63
2022-09-21T05:37:56.581Z,99908.81
2022-09-21T05:40:24.003Z,99909.88
2022-09-21T05:42:51.416Z,99902.50
2022-09-21T05:45:21.199Z,99912.03
2022-09-21T05:47:54.609Z,99902.56
2022-09-21T05:50:27.729Z,99897.13
2022-09-21T05:53:03.741Z,99900.13
2022-09-21T05:55:45.736Z,99899.78
2022-09-21T05:58:28.386Z,99894.88
2022-09-21T06:01:17.059Z,99894.66
2022-09-21T06:03:44.294Z,99901.50
2022-09-21T06:06:11.363Z,99896.41
2022-09-21T06:08:38.324Z,99894.84
2022-09-21T06:11:05.649Z,99892.66
2022-09-21T06:13:32.592Z,99899.59
2022-09-21T06:16:03.558Z,99894.47
2022-09-21T06:18:30.639Z,99896.34
2022-09-21T06:20:57.592Z,99897.75
2022-09-21T06:23:24.472Z,99893.44
2022-09-21T06:25:57.586Z,99901.09
2022-09-21T06:28:26.044Z,99897.84
2022-09-21T06:30:54.749Z,99903.06
2022-09-21T06:33:23.680Z,99904.63
2022-09-21T06:36:00.604Z,99902.25
2022-09-21T06:38:29.189Z,99904.47
2022-09-21T06:41:02.060Z,99896.03
2022-09-21T06:43:29.115Z,99895.56
2022-09-21T06:45:58.358Z,99894.66
2022-09-21T06:48:26.975Z,99905.41
2022-09-21T06:51:01.734Z,99897.06
2022-09-21T06:53:30.253Z,99895.38
2022-09-21T06:56:02.279Z,99882.78
2022-09-21T06:58:31.043Z,99902.19
2022-09-21T07:00:58.018Z,99901.72
2022-09-21T07:03:25.562Z,99907.25
2022-09-21T07:05:52.633Z,99907.56
2022-09-21T07:11:07.401Z,99904.66
2022-09-21T07:13:35.672Z,99909.44
2022-09-21T07:16:07.349Z,99903.69
2022-09-21T07:18:42.557Z,99899.81
2022-09-21T07:21:11.325Z,99901.63
2022-09-21T07:23:38.279Z,99902.03
2022-09-21T07:26:10.577Z,99897.91
2022-09-21T07:28:38.332Z,99896.63
2022-09-21T07:31:10.569Z,99894.81
2022-09-21T07:33:38.082Z,99888.25
2022-09-21T07:36:11.986Z,99887.81
2022-09-21T07:38:41.387Z,99893.63
2022-09-21T07:41:10.436Z,99884.75
2022-09-21T07:43:40.494Z,99890.00
2022-09-21T07:46:09.536Z,99892.13
2022-09-21T07:48:36.645Z,99893.34
2022-09-21T07:51:06.239Z,99903.34
2022-09-21T07:53:37.827Z,99902.34
2022-09-21T07:56:07.243Z,99898.13
2022-09-21T07:58:54.621Z,99898.94
2022-09-21T08:01:22.097Z,99900.19
2022-09-21T08:03:53.498Z,99896.09
2022-09-21T08:06:21.386Z,99896.94
2022-09-21T08:08:55.137Z,99899.75
2022-09-21T08:11:26.086Z,99889.78
2022-09-21T08:13:54.411Z,99887.94
2022-09-21T08:16:21.713Z,99892.72
2022-09-21T08:18:48.768Z,99891.25
2022-09-21T08:21:15.715Z,99887.94
2022-09-21T08:23:43.277Z,99890.63
2022-09-21T08:26:21.423Z,99888.22
2022-09-21T08:28:52.746Z,99891.34
2022-09-21T08:31:21.980Z,99889.34
2022-09-21T08:33:50.069Z,99883.22
2022-09-21T08:36:18.540Z,99889.75
2022-09-21T08:38:45.806Z,99885.06
2022-09-21T08:41:20.763Z,99885.97
2022-09-21T08:43:52.863Z,99885.59
2022-09-21T08:46:23.420Z,99882.22
2022-09-21T08:49:07.149Z,99881.63
2022-09-21T08:51:38.785Z,99882.22
2022-09-21T08:54:15.466Z,99882.38
2022-09-21T08:57:04.007Z,99880.09
2022-09-21T08:59:29.514Z,99869.41
2022-09-21T09:02:48.024Z,99870.34
2022-09-21T09:05:21.065Z,99867.84
2022-09-21T09:07:54.058Z,99866.00
2022-09-21T09:10:44.477Z,99858.84
2022-09-21T09:13:51.245Z,99866.16
2022-09-21T09:16:39.338Z,99862.69
2022-09-21T09:19:12.484Z,99861.63
2022-09-21T09:21:41.778Z,99852.50
2022-09-21T09:24:39.712Z,99856.13
2022-09-21T09:27:16.889Z,99856.91
2022-09-21T09:29:43.719Z,99851.00
2022-09-21T09:32:14.647Z,99850.19
2022-09-21T09:35:07.596Z,99847.41
2022-09-21T09:37:39.965Z,99845.94
2022-09-21T09:40:08.779Z,99846.97
2022-09-21T09:42:47.604Z,99848.50
2022-09-21T09:45:40.494Z,99845.09
2022-09-21T09:48:16.909Z,99848.66
2022-09-21T09:50:44.423Z,99848.59
2022-09-21T09:53:15.950Z,99845.41
2022-09-21T09:55:48.000Z,99839.88
2022-09-21T09:58:40.818Z,99841.84
2022-09-21T10:01:08.071Z,99839.22
2022-09-21T10:03:36.302Z,99844.84
2022-09-21T10:06:03.524Z,99845.06
2022-09-21T10:08:36.556Z,99844.91
2022-09-21T10:11:04.341Z,99847.38
2022-09-21T10:13:36.902Z,99847.03
2022-09-21T10:16:23.859Z,99844.13
2022-09-21T10:18:56.453Z,99849.50
2022-09-21T10:21:33.489Z,99838.38
2022-09-21T10:24:06.118Z,99833.09
2022-09-21T10:26:45.211Z,99832.91
2022-09-21T10:29:25.381Z,99840.78
2022-09-21T10:31:57.743Z,99834.94
2022-09-21T10:34:27.996Z,99833.75
2022-09-21T10:36:57.286Z,99836.59
2022-09-21T10:39:24.286Z,99826.41
2022-09-21T10:42:03.671Z,99833.75
2022-09-21T10:44:39.235Z,99832.47
2022-09-21T10:47:35.016Z,99822.72
2022-09-21T10:50:06.268Z,99827.44
2022-09-21T10:52:45.939Z,99830.47
2022-09-21T10:55:19.911Z,99826.97
2022-09-21T10:57:48.043Z,99820.19
2022-09-21T11:00:29.581Z,99832.75
2022-09-21T11:02:59.297Z,99828.75
2022-09-21T11:05:33.900Z,99833.03
2022-09-21T11:08:18.241Z,99832.44
2022-09-21T11:10:57.228Z,99834.31
2022-09-21T11:13:54.466Z,99826.28
2022-09-21T11:16:30.462Z,99835.84
2022-09-21T11:19:15.864Z,99830.56
2022-09-21T11:22:02.457Z,99819.84
2022-09-21T11:24:48.500Z,99823.78
2022-09-21T11:27:22.884Z,99817.09
2022-09-21T11:30:03.460Z,99827.53
2022-09-21T11:32:34.376Z,99821.88
2022-09-21T11:35:35.691Z,99830.56
2022-09-21T11:38:37.613Z,99818.38
2022-09-21T11:41:42.560Z,99815.72
2022-09-21T11:44:28.031Z,99811.25
2022-09-21T11:47:28.921Z,99808.28
2022-09-21T11:50:29.898Z,99803.94
2022-09-21T11:53:28.761Z,99803.88
2022-09-21T11:56:18.863Z,99806.19
2022-09-21T11:59:12.130Z,99797.47
2022-09-21T12:01:55.553Z,99800.34
2022-09-21T12:04:45.109Z,99810.88
2022-09-21T12:07:39.710Z,99802.75
2022-09-21T12:10:25.218Z,99797.47
2022-09-21T12:13:15.074Z,99798.75
2022-09-21T12:16:11.893Z,99792.00
2022-09-21T12:18:48.269Z,99802.00
2022-09-21T12:21:23.081Z,99789.47
2022-09-21T12:23:59.725Z,99793.09
2022-09-21T12:26:34.507Z,99791.22
2022-09-21T12:29:07.649Z,99799.34
2022-09-21T12:31:59.185Z,99789.91
2022-09-21T12:34:34.543Z,99788.84
2022-09-21T12:37:13.431Z,99786.22
2022-09-21T12:39:50.937Z,99796.38
2022-09-21T12:42:26.468Z,99797.19
2022-09-21T12:45:00.031Z,99793.41
2022-09-21T12:47:55.391Z,99787.22
2022-09-21T12:50:35.515Z,99770.06
2022-09-21T12:53:03.997Z,99793.34
2022-09-21T12:55:44.643Z,99784.63
2022-09-21T12:58:31.112Z,99786.38
2022-09-21T13:01:01.875Z,99797.94
2022-09-21T13:03:44.461Z,99795.03
2022-09-21T13:06:42.795Z,99793.25
2022-09-21T13:09:15.511Z,99788.97
2022-09-21T13:12:09.291Z,99799.44
2022-09-21T13:14:42.432Z,99795.09
2022-09-21T13:17:22.360Z,99793.25
2022-09-21T13:20:19.653Z,99788.78
2022-09-21T13:22:49.079Z,99786.06
2022-09-21T13:25:23.937Z,99784.88
2022-09-21T13:28:05.181Z,99785.06
2022-09-21T13:30:42.379Z,99792.97
2022-09-21T13:33:23.160Z,99789.97
2022-09-21T13:36:05.053Z,99784.78
2022-09-21T13:38:51.860Z,99783.25
2022-09-21T13:41:18.771Z,99777.53
2022-09-21T13:43:48.317Z,99782.16
2022-09-21T13:46:37.222Z,99777.13
2022-09-21T13:49:16.160Z,99779.75
2022-09-21T13:51:53.817Z,99780.16
2022-09-21T13:54:24.299Z,99774.91
2022-09-21T13:57:37.043Z,99779.84
2022-09-21T14:00:12.929Z,99775.09
2022-09-21T14:02:50.072Z,99786.13
2022-09-21T14:05:25.462Z,99787.00
2022-09-21T14:08:02.048Z,99782.38
2022-09-21T14:10:32.408Z,99777.56
2022-09-21T14:13:02.036Z,99779.03
2022-09-21T14:15:38.203Z,99776.75
2022-09-21T14:18:16.465Z,99777.91
2022-09-21T14:21:17.410Z,99769.72
2022-09-21T14:24:05.929Z,99770.44
2022-09-21T14:26:41.982Z,99774.72
2022-09-21T14:29:27.961Z,99770.78
2022-09-21T14:31:58.772Z,99771.03
2022-09-21T14:34:31.840Z,99766.94
2022-09-21T14:37:03.165Z,99778.41
2022-09-21T14:39:37.409Z,99770.25
2022-09-21T14:42:13.457Z,99778.13
2022-09-21T14:44:42.666Z,99779.47
2022-09-21T14:47:33.325Z,99777.53
2022-09-21T14:50:14.401Z,99778.22
2022-09-21T14:53:01.916Z,99779.66
2022-09-21T14:55:50.456Z,99776.22
2022-09-21T14:58:27.683Z,99774.44
2022-09-21T15:00:54.756Z,99778.56
2022-09-21T15:03:46.318Z,99782.00
2022-09-21T15:06:37.543Z,99782.53
2022-09-21T15:09:44.635Z,99783.16
2022-09-21T15:12:21.497Z,99777.13
2022-09-21T15:15:32.375Z,99788.00
2022-09-21T15:18:02.075Z,99783.19
2022-09-21T15:20:32.295Z,99783.38
2022-09-21T15:23:00.347Z,99782.75
2022-09-21T15:25:32.681Z,99784.34
2022-09-21T15:28:00.508Z,99785.53
2022-09-21T15:30:33.241Z,99795.13
2022-09-21T15:33:02.151Z,99802.69
2022-09-21T15:35:33.047Z,99798.06
2022-09-21T15:38:01.404Z,99789.16
2022-09-21T15:40:46.570Z,99793.78
2022-09-21T15:43:17.002Z,99795.63
2022-09-21T15:45:54.567Z,99800.03
2022-09-21T15:48:23.183Z,99796.13
2022-09-21T15:50:58.281Z,99811.94
2022-09-21T15:53:32.888Z,99809.66
2022-09-21T15:56:03.011Z,99809.66
2022-09-21T15:58:35.862Z,99816.88
2022-09-21T16:01:15.727Z,99816.88
2022-09-21T16:03:43.495Z,99824.78
2022-09-21T16:06:22.536Z,99827.75
2022-09-21T16:08:49.448Z,99831.06
2022-09-21T16:11:29.114Z,99834.44
2022-09-21T16:14:34.681Z,99828.81
2022-09-21T16:17:13.333Z,99834.09
2022-09-21T16:20:00.544Z,99838.38
2022-09-21T16:22:36.419Z,99839.19
2022-09-21T16:25:20.327Z,99839.38
2022-09-21T16:28:03.542Z,99825.44
2022-09-21T16:30:51.232Z,99827.56
2022-09-21T16:33:44.327Z,99829.84
2022-09-21T16:36:17.251Z,99834.78
2022-09-21T16:38:45.071Z,99839.88
2022-09-21T16:41:11.989Z,99841.22
2022-09-21T16:43:43.514Z,99836.13
2022-09-21T16:46:11.332Z,99832.19
2022-09-21T16:48:38.905Z,99838.94
2022-09-21T16:51:12.276Z,99837.16
2022-09-21T16:53:39.271Z,99848.16
2022-09-21T16:56:07.157Z,99841.25
2022-09-21T16:58:34.098Z,99857.22
2022-09-21T17:01:01.366Z,99849.34
2022-09-21T17:03:30.825Z,99859.53
2022-09-21T17:05:57.712Z,99855.09
2022-09-21T17:08:25.155Z,99862.16
2022-09-21T17:10:52.098Z,99859.22
2022-09-21T17:13:20.648Z,99859.56
2022-09-21T17:15:48.942Z,99862.00
2022-09-21T17:18:15.970Z,99870.41
2022-09-21T17:20:45.425Z,99881.59
2022-09-21T17:23:12.468Z,99874.41
2022-09-21T17:25:39.505Z,99886.56
2022-09-21T17:28:18.055Z,99900.34
2022-09-21T17:30:46.603Z,99903.59
2022-09-21T17:33:13.615Z,99918.19
2022-09-21T17:35:41.977Z,99912.31
2022-09-21T17:38:12.569Z,99918.69
2022-09-21T17:40:42.699Z,99912.13
2022-09-21T17:43:36.312Z,99921.91
2022-09-21T17:46:39.955Z,99926.59
2022-09-21T17:49:09.842Z,99919.72
2022-09-21T17:51:56.051Z,99926.28
2022-09-21T17:54:23.346Z,99913.66
2022-09-21T17:57:02.429Z,99913.81
2022-09-21T17:59:37.732Z,99907.84
2022-09-21T18:02:34.228Z,99903.06
2022-09-21T18:05:13.478Z,99898.13
2022-09-21T18:07:41.721Z,99890.69
2022-09-21T18:10:13.101Z,99888.09
2022-09-21T18:12:48.911Z,99881.50
2022-09-21T18:15:25.466Z,99879.19
2022-09-21T18:18:15.008Z,99872.91
2022-09-21T18:20:44.746Z,99901.06
2022-09-21T18:23:45.469Z,99915.72
2022-09-21T18:26:18.490Z,99911.38
2022-09-21T18:28:57.103Z,99917.97
2022-09-21T18:31:45.830Z,99916.56
2022-09-21T18:34:34.832Z,99925.91
2022-09-21T18:37:54.543Z,99917.44
2022-09-21T18:40:36.712Z,99916.78
2022-09-21T18:43:34.312Z,99916.94
2022-09-21T18:46:03.725Z,99917.59
2022-09-21T18:48:39.975Z,99921.72
2022-09-21T18:51:29.328Z,99911.25
2022-09-21T18:53:57.495Z,99917.28
2022-09-21T18:56:34.121Z,99913.72
2022-09-21T18:59:01.208Z,99913.16
2022-09-21T19:01:33.094Z,99907.94
2022-09-21T19:04:01.461Z,99911.25
2022-09-21T19:06:37.643Z,99909.28
2022-09-21T19:09:24.927Z,99915.03
2022-09-21T19:12:19.701Z,99912.97
2022-09-21T19:15:27.521Z,99913.41
2022-09-21T19:18:27.430Z,99917.50
2022-09-21T19:21:02.120Z,99913.94
2022-09-21T19:23:32.171Z,99911.16
2022-09-21T19:26:24.390Z,99921.63
2022-09-21T19:29:19.173Z,99917.50
2022-09-21T19:31:46.347Z,99913.13
2022-09-21T19:34:16.738Z,99917.50
2022-09-21T19:36:45.109Z,99919.16
2022-09-21T19:39:12.556Z,99920.81
2022-09-21T19:41:57.632Z,99925.75
2022-09-21T19:44:38.834Z,99926.44
2022-09-21T19:47:06.709Z,99925.44
2022-09-21T19:49:47.373Z,99918.28
2022-09-21T19:52:17.274Z,99914.00
2022-09-21T19:55:03.953Z,99913.03
2022-09-21T19:57:49.650Z,99913.03
2022-09-21T20:00:18.762Z,99922.00
2022-09-21T20:03:07.545Z,99923.50
2022-09-21T20:05:34.385Z,99919.06
2022-09-21T20:08:22.683Z,99913.03
2022-09-21T20:11:07.645Z,99917.28
2022-09-21T20:14:02.000Z,99913.69
2022-09-21T20:16:49.353Z,99911.88
2022-09-21T20:19:19.188Z,99906.63
2022-09-21T20:21:51.429Z,99900.59
2022-09-21T20:24:27.996Z,99906.34
2022-09-21T20:26:54.982Z,99898.94
2022-09-21T20:29:22.124Z,99897.59
2022-09-21T20:31:52.518Z,99903.16
2022-09-21T20:34:20.056Z,99902.00
2022-09-21T20:36:46.993Z,99892.38
2022-09-21T20:39:13.997Z,99893.69
2022-09-21T20:41:41.171Z,99893.69
2022-09-21T20:44:12.907Z,99887.31
2022-09-21T20:46:39.791Z,99889.78
2022-09-21T20:49:08.743Z,99879.97
2022-09-21T20:51:36.231Z,99886.22
2022-09-21T20:54:04.071Z,99882.28
2022-09-21T20:56:31.747Z,99885.44
2022-09-21T20:58:59.320Z,99878.09
2022-09-21T21:01:27.180Z,99886.31
2022-09-21T21:04:01.826Z,99884.34
2022-09-21T21:06:31.344Z,99878.28
2022-09-21T21:08:58.557Z,99868.47
2022-09-21T21:11:28.178Z,99865.84
2022-09-21T21:13:56.331Z,99872.75
2022-09-21T21:16:23.835Z,99870.28
2022-09-21T21:18:50.927Z,99874.41
2022-09-21T21:21:17.790Z,99877.69
2022-09-21T21:24:07.784Z,99872.44
2022-09-21T21:27:00.323Z,99872.59
2022-09-21T21:29:22.412Z,99881.25
2022-09-21T21:31:50.134Z,99881.25
2022-09-21T21:34:17.289Z,99876.19
2022-09-21T21:36:44.325Z,99878.81
2022-09-21T21:39:11.687Z,99878.66
2022-09-21T21:41:38.752Z,99878.81
2022-09-21T21:44:05.683Z,99878.50
2022-09-21T21:46:32.697Z,99875.88
2022-09-21T21:49:00.506Z,99871.31
2022-09-21T21:51:27.370Z,99877.53
2022-09-21T21:53:54.371Z,99872.28
2022-09-21T21:56:23.396Z,99875.56
2022-09-21T21:58:54.360Z,99870.63
2022-09-21T22:01:23.919Z,99871.63
2022-09-21T22:03:57.070Z,99873.56
2022-09-21T22:06:25.532Z,99877.19
2022-09-21T22:08:52.963Z,99880.47
2022-09-21T22:11:21.338Z,99883.59
2022-09-21T22:13:48.966Z,99883.22
2022-09-21T22:16:22.151Z,99881.81
2022-09-21T22:18:50.272Z,99888.00
2022-09-21T22:21:23.390Z,99885.09
2022-09-21T22:23:59.611Z,99883.94
2022-09-21T22:26:28.772Z,99881.50
2022-09-21T22:29:01.286Z,99879.34
2022-09-21T22:31:35.082Z,99869.97
2022-09-21T22:34:02.837Z,99870.13
2022-09-21T22:36:34.742Z,99879.66
2022-09-21T22:39:02.367Z,99889.28
2022-09-21T22:41:31.826Z,99876.19
2022-09-21T22:43:59.532Z,99869.97
2022-09-21T22:46:27.935Z,99874.72
2022-09-21T22:48:55.105Z,99870.06
2022-09-21T22:51:22.767Z,99874.16
2022-09-21T22:53:51.032Z,99877.47
2022-09-21T22:56:21.044Z,99872.25
2022-09-21T22:58:51.399Z,99886.00
2022-09-21T23:01:19.901Z,99878.94
2022-09-21T23:03:48.907Z,99876.19
2022-09-21T23:06:19.098Z,99877.84
2022-09-21T23:08:50.811Z,99877.19
2022-09-21T23:11:21.979Z,99883.06
2022-09-21T23:13:50.002Z,99874.41
2022-09-21T23:16:18.065Z,99876.03
2022-09-21T23:18:45.475Z,99870.63
2022-09-21T23:21:18.009Z,99870.63
2022-09-21T23:23:45.528Z,99868.84
2022-09-21T23:26:15.305Z,99861.13
2022-09-21T23:28:44.935Z,99863.38
2022-09-21T23:31:15.267Z,99852.53
2022-09-21T23:33:45.373Z,99860.41
2022-09-21T23:36:16.053Z,99856.28
2022-09-21T23:38:43.930Z,99851.44
2022-09-21T23:41:13.477Z,99846.34
2022-09-21T23:43:42.005Z,99850.47
2022-09-21T23:46:11.891Z,99853.75
2022-09-21T23:48:39.393Z,99852.78
2022-09-21T23:51:07.508Z,99850.84
2022-09-21T23:53:35.511Z,99852.19
2022-09-21T23:56:04.325Z,99841.69
2022-09-21T23:58:31.899Z,99839.38
